Tiempo atmosférico en la estación meteorológica de Cillórigo de Liébana, Tama, Cantabria (250 m.)

Fecha
DESCASC
Temp. máxima en grados centígrados (hora)
DESCASC
Temp. mínima en grados centígrados (hora)
DESCASC
Temp. media en grados centígrados
DESCASC
Racha de viento máxima en m/sg (hora)
DESCASC
Velocidad máxima media en intervalos de 10 minutos(hora)
DESCASC
Precipitaciones diarias en mm
DESCASC
Precipitaciones de 00:00 a 06:00 en mm
DESCASC
Precipitaciones de 06:00 a 12:00 en mm
DESCASC
Precipitaciones de 12:00 a 18:00 en mm
DESCASC
Precipitaciones de 18:00 a 24:00 en mm
DESCASC
17-08-2017 29.9 (17:40) 13.4 (07:30) 21.6 13.61 (14:30) 7.22 (14:10) 0 0 0 0 0
16-08-2017 26.4 (16:10) 15.8 (05:20) 21.1 12.22 (17:50) 6.39 (17:20) 0 0 0 0 0
15-08-2017 22.2 (11:50) 18.6 (00:00) 20.4 11.11 (15:10) 6.39 (13:10) 0 0 0 0 0
14-08-2017 34.2 (14:00) 12.4 (07:20) 23.3 15.28 (18:20) 6.67 (16:00) 0 0 0 0 0
13-08-2017 26.6 (14:40) 9.9 (00:00) 18.3 12.78 (17:00) 5.83 (17:20) 0 0 0 0 0
12-08-2017 26.6 (15:20) 9.1 (00:00) 17.9 12.78 (18:00) 6.67 (16:40) 0 0 0 0 0
11-08-2017 22.5 (17:10) 9.4 (00:00) 15.9 13.06 (17:40) 7.78 (17:30) 0 0 0 0 0
10-08-2017 22.1 (14:30) 8.8 (00:00) 15.5 13.06 (17:30) 6.39 (17:00) 0 0 0 0 0
09-08-2017 20 (15:50) 11.2 (00:00) 15.6 13.89 (13:00) 6.94 (13:00) 0 0 0 0 0
08-08-2017 22.9 (15:20) 12.6 (00:00) 17.8 11.94 (17:20) 5.56 (16:30) 0 0 0 0 0
07-08-2017 22 (13:40) 17 (00:00) 19.5 11.67 (14:40) 6.11 (14:00) 0 0 0 0 0
06-08-2017 22.2 (16:00) 16 (00:00) 19.1 9.17 (17:20) 4.17 (16:40) 0 0 0 0 0
05-08-2017 22.7 (00:00) 16.9 (00:00) 19.8 11.39 (07:10) 6.11 (07:10) 0 0 0 0 0
04-08-2017 30.3 (13:30) 15.2 (00:00) 22.7 14.44 (17:20) 7.78 (17:00) 0 0 0 0 0
03-08-2017 26.8 (12:10) 13.1 (00:00) 19.9 15 (15:50) 6.94 (16:20) 0 0 0 0 0
02-08-2017 27.2 (13:40) 14.1 (00:00) 20.7 15.28 (17:30) 8.89 (17:30) 0 0 0 0 0
01-08-2017 23.1 (18:40) 16.8 (00:00) 19.9 12.22 (15:20) 6.11 (15:20) 0.2 0.2 0 0 0
31-07-2017 20.2 (18:10) 16.2 (00:00) 18.2 6.39 (19:00) 3.61 (18:30) 0.4 0 0 0.4 0
30-07-2017 23.6 (11:50) 17.2 (00:00) 20.4 15 (14:10) 7.78 (14:50) 0 0 0 0 0
29-07-2017 30.1 (17:10) 14.9 (00:00) 22.5 11.67 (19:20) 6.11 (19:20) 0 0 0 0 0
28-07-2017 28.3 (16:20) 18.6 (00:00) 23.4 13.89 (15:50) 7.22 (17:40) 0 0 0 0 0
27-07-2017 28.1 (13:30) 12.7 (00:00) 20.4 13.61 (15:10) 7.5 (15:10) 0 0 0 0 0
26-07-2017 28.4 (18:00) 11.4 (00:00) 19.9 11.39 (14:40) 5.83 (14:40) 0 0 0 0 0
25-07-2017 22.9 (14:40) 14.6 (00:00) 18.8 13.33 (16:10) 6.39 (17:00) 0 0 0 0 0
24-07-2017 24.8 (14:50) 14.8 (00:00) 19.8 13.33 (15:30) 6.67 (15:30) 0 0 0 0 0
23-07-2017 25.9 (15:40) 16.2 (00:00) 21.1 11.67 (16:30) 5.83 (19:50) 0 0 0 0 0
22-07-2017 22.1 (13:10) 13.7 (00:00) 17.9 14.44 (14:30) 7.5 (15:00) 0 0 0 0 0

Gráficas

Temp. máximas Temp. mínimas Temp. medias Precipitaciones Rachas de viento máximas Velocidades máximas media en intervalos de 10 minutos

Datos horarios

Fecha y hora oficial Temperatura (ºC) Velocidad del viento (km/h) Dirección del viento Racha (km/h) Dirección de racha Precipitación (mm) Presión (hPa) Tendencia (hPa) Humedad (%)
2017-08-20 23:00:00 19.8 0 Calma 5 Sudoeste 0 -- -- 75
2017-08-20 22:00:00 21.9 3 Oeste 9 Oeste 0 -- -- 68
2017-08-20 21:00:00 24.3 8 Norte 24 Norte 0 -- -- 61
2017-08-20 20:00:00 26.2 8 Noroeste 27 Norte 0 -- -- 56
2017-08-20 19:00:00 26.8 9 Norte 30 Norte 0 -- -- 54
2017-08-20 18:00:00 27.2 15 Norte 35 Noroeste 0 -- -- 52
2017-08-20 17:00:00 27.7 15 Norte 35 Norte 0 -- -- 49
2017-08-20 16:00:00 28.4 16 Norte 34 Norte 0 -- -- 45
2017-08-20 15:00:00 28 15 Norte 37 Norte 0 -- -- 44
2017-08-20 14:00:00 27.7 12 Norte 21 Noroeste 0 -- -- 44
2017-08-20 13:00:00 26.4 3 Oeste 13 Norte 0 -- -- 32
2017-08-20 12:00:00 23.8 3 Sudoeste 9 Nordeste 0 -- -- 50
2017-08-20 11:00:00 21 2 Nordeste 5 Sudeste 0 -- -- 62
2017-08-20 10:00:00 17.8 3 Este 5 Este 0 -- -- 71
2017-08-20 09:00:00 14.3 2 Noroeste 10 Sudeste 0 -- -- 85
2017-08-20 08:00:00 14 2 Sur 4 Sur 0 -- -- 91
2017-08-20 07:00:00 14.6 2 Noroeste 4 Noroeste 0 -- -- 91
2017-08-20 06:00:00 14.4 3 Noroeste 4 Noroeste 0 -- -- 92
2017-08-20 05:00:00 14.4 0 Calma 2 Noroeste 0 -- -- 90
2017-08-20 04:00:00 14.9 0 Calma 5 Oeste 0 -- -- 88
2017-08-20 03:00:00 15.9 3 Noroeste 5 Sudoeste 0 -- -- 85
2017-08-20 02:00:00 17.6 0 Calma 5 Sur 0 -- -- 80
2017-08-20 01:00:00 18.2 3 Sur 6 Norte 0 -- -- 78
2017-08-20 00:00:00 18.3 0 Calma 12 Noroeste 0 -- -- 77
2017-08-19 23:00:00 18.5 6 Norte 24 Norte 0 -- -- 77
2017-08-19 22:00:00 18.7 11 Noroeste 28 Noroeste 0 -- -- 77
2017-08-19 21:00:00 19 9 Norte 26 Noroeste 0 -- -- 75
2017-08-19 20:00:00 19.3 15 Noroeste 36 Noroeste 0 -- -- 75
2017-08-19 19:00:00 20.4 19 Noroeste 42 Noroeste 0 -- -- 72
2017-08-19 18:00:00 21.3 19 Noroeste 44 Noroeste 0 -- -- 69
2017-08-19 17:00:00 22 17 Norte 42 Noroeste 0 -- -- 67
2017-08-19 16:00:00 22.8 17 Norte 33 Norte 0 -- -- 65
2017-08-19 15:00:00 23.4 14 Noroeste 33 Noroeste 0 -- -- 60
2017-08-19 14:00:00 23.5 14 Noroeste 26 Noroeste 0 -- -- 59
2017-08-19 13:00:00 22.4 10 Noroeste 23 Noroeste 0 -- -- 63
2017-08-19 12:00:00 21.6 7 Norte 21 Noroeste 0 -- -- 67
2017-08-19 11:00:00 20.8 6 Norte 19 Nordeste 0 -- -- 71
2017-08-19 10:00:00 20 8 Norte 18 Noroeste 0 -- -- 73
2017-08-19 09:00:00 18.7 8 Norte 19 Norte 0 -- -- 80
2017-08-19 08:00:00 18.3 6 Norte 19 Norte 0 -- -- 81
2017-08-19 07:00:00 18.4 8 Norte 22 Norte 0 -- -- 81
2017-08-19 06:00:00 18.6 9 Norte 19 Noroeste 0 -- -- 81
2017-08-19 05:00:00 19.1 7 Norte 22 Norte 0 -- -- 79
2017-08-19 04:00:00 19.4 10 Noroeste 25 Norte 0 -- -- 78
2017-08-19 03:00:00 19.6 8 Norte 21 Norte 0 -- -- 78
2017-08-19 02:00:00 19.9 9 Noroeste 22 Norte 0 -- -- 77
2017-08-19 01:00:00 20 5 Norte 14 Noroeste 0 -- -- 76
2017-08-19 00:00:00 20 6 Norte 18 Noroeste 0 -- -- 76
2017-08-18 23:00:00 20.4 9 Noroeste 23 Norte 0 -- -- 75
2017-08-18 22:00:00 20.6 8 Norte 24 Noroeste 0 -- -- 74
2017-08-18 21:00:00 20.4 9 Noroeste 31 Noroeste 0 -- -- 76
2017-08-18 20:00:00 21.4 13 Norte 34 Norte 0 -- -- 71
2017-08-18 19:00:00 23.2 15 Noroeste 35 Noroeste 0 -- -- 65
2017-08-18 18:00:00 24.1 13 Noroeste 42 Norte 0 -- -- 61
2017-08-18 17:00:00 24.8 15 Norte 37 Norte 0 -- -- 58
2017-08-18 16:00:00 25.8 17 Norte 34 Norte 0 -- -- 54
2017-08-18 15:00:00 25 13 Noroeste 29 Noroeste 0 -- -- 55
2017-08-18 14:00:00 24.7 11 Norte 32 Norte 0 -- -- 54
2017-08-18 13:00:00 24.1 16 Norte 31 Nordeste 0 -- -- 59
2017-08-18 12:00:00 22.8 9 Norte 28 Norte 0 -- -- 65
2017-08-18 11:00:00 21.7 10 Norte 19 Norte 0 -- -- 73
2017-08-18 10:00:00 21.2 2 Noroeste 6 Noroeste 0 -- -- 79
2017-08-18 09:00:00 20.2 2 Noroeste 4 Noroeste 0 -- -- 83
2017-08-18 08:00:00 20 0 Calma 3 Sudoeste 0 -- -- 83
2017-08-18 07:00:00 20 0 Calma 5 Noroeste 0 -- -- 83
2017-08-18 06:00:00 19.9 0 Calma 5 Noroeste 0 -- -- 83
2017-08-18 05:00:00 20.1 0 Calma 3 Sur 0 -- -- 82
2017-08-18 04:00:00 20 0 Calma 4 Noroeste 0 -- -- 82
2017-08-18 03:00:00 20.1 0 Calma 7 Oeste 0 -- -- 80
2017-08-18 02:00:00 20.7 2 Sudoeste 19 Noroeste 0 -- -- 79
2017-08-18 01:00:00 21.1 12 Noroeste 27 Noroeste 0 -- -- 77
2017-08-18 00:00:00 20.9 11 Noroeste 23 Norte 0 -- -- 81
2017-08-17 23:00:00 21.8 7 Noroeste 21 Noroeste 0 -- -- 77
2017-08-17 22:00:00 24.2 7 Noroeste 20 Noroeste 0 -- -- 67
2017-08-17 21:00:00 26.3 5 Noroeste 22 Norte 0 -- -- 55
2017-08-17 20:00:00 27.9 9 Norte 27 Norte 0 -- -- 50
2017-08-17 19:00:00 28.8 14 Norte 29 Norte 0 -- -- 48
2017-08-17 18:00:00 29.8 13 Noroeste 27 Norte 0 -- -- 42
2017-08-17 17:00:00 29.7 12 Noroeste 38 Norte 0 -- -- 43
2017-08-17 16:00:00 28.7 15 Norte 38 Nordeste 0 -- -- 47
2017-08-17 15:00:00 27.2 16 Noroeste 49 Norte 0 -- -- 53
2017-08-17 14:00:00 25.5 23 Norte 46 Norte 0 -- -- 60
2017-08-17 13:00:00 25.6 18 Norte 36 Norte 0 -- -- 60
2017-08-17 12:00:00 24.8 10 Nordeste 17 Nordeste 0 -- -- 58
2017-08-17 11:00:00 21.7 3 Norte 6 Este 0 -- -- 69
2017-08-17 10:00:00 17.4 2 Noroeste 6 Noroeste 0 -- -- 85
2017-08-17 09:00:00 13.7 2 Norte 4 Norte 0 -- -- 96
2017-08-17 08:00:00 13.4 0 Calma 3 Norte 0 -- -- 95
2017-08-17 07:00:00 13.6 0 Calma 2 Sudoeste 0 -- -- 94
2017-08-17 06:00:00 14 0 Calma 3 Sudoeste 0 -- -- 94
2017-08-17 05:00:00 14.6 0 Calma 3 Oeste 0 -- -- 92
2017-08-17 04:00:00 15.2 2 Oeste 3 Sur 0 -- -- 90
2017-08-17 03:00:00 15.8 0 Calma 4 Oeste 0 -- -- 89
2017-08-17 02:00:00 16.6 0 Calma 4 Sudoeste 0 -- -- 87
2017-08-17 01:00:00 17.6 0 Calma 4 Oeste 0 -- -- 83
2017-08-17 00:00:00 19.1 2 Sudeste 7 Sudeste 0 -- -- 78
2017-08-16 23:00:00 20.7 2 Norte 11 Noroeste 0 -- -- 73
2017-08-16 22:00:00 22.2 6 Norte 26 Norte 0 -- -- 67
2017-08-16 21:00:00 23.1 11 Norte 24 Noroeste 0 -- -- 64
2017-08-16 20:00:00 24.7 8 Noroeste 35 Norte 0 -- -- 59
2017-08-16 19:00:00 25.2 12 Noroeste 41 Norte 0 -- -- 58
2017-08-16 18:00:00 25.3 22 Norte 44 Noroeste 0 -- -- 58
2017-08-16 17:00:00 26.3 19 Norte 41 Noroeste 0 -- -- 55
2017-08-16 16:00:00 26.3 21 Noroeste 42 Noroeste 0 -- -- 56
2017-08-16 15:00:00 26.1 18 Noroeste 37 Norte 0 -- -- 55
2017-08-16 14:00:00 25.6 19 Norte 33 Norte 0 -- -- 53
2017-08-16 13:00:00 24.8 12 Norte 24 Norte 0 -- -- 55
2017-08-16 12:00:00 23.9 7 Nordeste 14 Nordeste 0 -- -- 59
2017-08-16 11:00:00 22.1 4 Norte 8 Noroeste 0 -- -- 64
2017-08-16 10:00:00 19.3 0 Calma 4 Sur 0 -- -- 75
2017-08-16 09:00:00 17.4 0 Calma 4 Noroeste 0 -- -- 88
2017-08-16 08:00:00 16.6 0 Calma 2 Noroeste 0 -- -- 90
2017-08-16 07:00:00 16.4 0 Calma 3 Noroeste 0 -- -- 90
2017-08-16 06:00:00 16.1 0 Calma 4 Noroeste 0 -- -- 91
2017-08-16 05:00:00 15.9 2 Sur 5 Sur 0 -- -- 90
2017-08-16 04:00:00 16.8 0 Calma 4 Norte 0 -- -- 88
2017-08-16 03:00:00 17.6 0 Calma 3 Sudeste 0 -- -- 85
2017-08-16 02:00:00 18.3 0 Calma 4 Noroeste 0 -- -- 84
2017-08-16 01:00:00 18.8 3 Noroeste 4 Norte 0 -- -- 81
2017-08-16 00:00:00 19.2 0 Calma 10 Norte 0 -- -- 79
2017-08-15 23:00:00 19.2 4 Norte 15 Noroeste 0 -- -- 79
2017-08-15 22:00:00 19.7 5 Norte 22 Noroeste 0 -- -- 77
2017-08-15 21:00:00 20.3 10 Noroeste 23 Norte 0 -- -- 74
2017-08-15 20:00:00 20.6 10 Noroeste 24 Noroeste 0 -- -- 73
2017-08-15 19:00:00 20.8 11 Norte 23 Oeste 0 -- -- 72
2017-08-15 18:00:00 21.3 11 Noroeste 28 Norte 0 -- -- 70
2017-08-15 17:00:00 21.7 10 Norte 33 Norte 0 -- -- 69
2017-08-15 16:00:00 22 16 Norte 40 Noroeste 0 -- -- 67
2017-08-15 15:00:00 21.8 19 Norte 37 Noroeste 0 -- -- 67
2017-08-15 14:00:00 21.6 12 Norte 38 Norte 0 -- -- 66
2017-08-15 13:00:00 21.3 17 Norte 35 Norte 0 -- -- 67
2017-08-15 12:00:00 21.7 14 Norte 27 Norte 0 -- -- 68
2017-08-15 11:00:00 21.1 5 Noroeste 11 Norte 0 -- -- 73
2017-08-15 10:00:00 20.3 4 Noroeste 15 Norte 0 -- -- 76
2017-08-15 09:00:00 20 2 Noroeste 9 Norte 0 -- -- 79
2017-08-15 08:00:00 19.3 2 Noroeste 9 Sudeste 0 -- -- 82
2017-08-15 07:00:00 19.4 6 Sudeste 9 Sudeste 0 -- -- 80
2017-08-15 06:00:00 19 0 Calma 5 Noroeste 0 -- -- 81
2017-08-15 05:00:00 19 3 Sur 5 Sur 0 -- -- 80
2017-08-15 04:00:00 18.7 0 Calma 8 Sudeste 0 -- -- 82
2017-08-15 03:00:00 18.7 0 Calma 10 Sur 0 -- -- 81
2017-08-15 02:00:00 19.9 4 Sudoeste 15 Noroeste 0 -- -- 77
2017-08-15 01:00:00 20.7 7 Norte 25 Norte 0 -- -- 75
2017-08-15 00:00:00 21.2 8 Norte 31 Noroeste 0 -- -- 73
2017-08-14 23:00:00 22.4 10 Norte 23 Noroeste 0 -- -- 68
2017-08-14 22:00:00 23.4 2 Noroeste 29 Noroeste 0 -- -- 62
2017-08-14 21:00:00 24.6 13 Norte 30 Norte 0 -- -- 59
2017-08-14 20:00:00 27.2 15 Norte 34 Norte 0 -- -- 48
2017-08-14 19:00:00 28.5 17 Norte 55 Noroeste 0 -- -- 43
2017-08-14 18:00:00 29.8 23 Noroeste 50 Norte 0 -- -- 43
2017-08-14 17:00:00 31.8 19 Noroeste 43 Noroeste 0 -- -- 35
2017-08-14 16:00:00 32 24 Norte 45 Norte 0 -- -- 33
2017-08-14 15:00:00 33.7 14 Norte 36 Norte 0 -- -- 28
2017-08-14 14:00:00 34.2 13 Norte 25 Norte 0 -- -- 26
2017-08-14 13:00:00 31.7 6 Noroeste 13 Noroeste 0 -- -- 38
2017-08-14 12:00:00 27 3 Noroeste 6 Noroeste 0 -- -- 47
2017-08-14 11:00:00 22.3 0 Calma 4 Este 0 -- -- 62
2017-08-14 10:00:00 17.6 0 Calma 3 Este 0 -- -- 79
2017-08-14 09:00:00 13.5 0 Calma 4 Sudeste 0 -- -- 97
2017-08-14 08:00:00 12.4 0 Calma 4 Noroeste 0 -- -- 96
2017-08-14 07:00:00 12.5 0 Calma 4 Este 0 -- -- 95
2017-08-14 06:00:00 13.1 0 Calma 4 Oeste 0 -- -- 95
2017-08-14 05:00:00 13.7 0 Calma 3 Sudoeste 0 -- -- 94
2017-08-14 04:00:00 14.4 0 Calma 2 Norte 0 -- -- 93
2017-08-14 03:00:00 15 0 Calma 4 Oeste 0 -- -- 93
2017-08-14 02:00:00 15.7 0 Calma 4 Oeste 0 -- -- 90
2017-08-14 01:00:00 16.8 0 Calma 3 Sur 0 -- -- 88
2017-08-14 00:00:00 18 0 Calma 4 Sudoeste 0 -- -- 85
2017-08-13 23:00:00 19.5 2 Sur 16 Noroeste 0 -- -- 81
2017-08-13 22:00:00 20.3 7 Noroeste 26 Noroeste 0 -- -- 79
2017-08-13 21:00:00 21 12 Norte 33 Noroeste 0 -- -- 76
2017-08-13 20:00:00 22.9 11 Norte 33 Norte 0 -- -- 69
2017-08-13 19:00:00 24.2 17 Norte 39 Norte 0 -- -- 64
2017-08-13 18:00:00 25 16 Norte 43 Norte 0 -- -- 61
2017-08-13 17:00:00 25.8 21 Noroeste 46 Norte 0 -- -- 57
2017-08-13 16:00:00 26.4 18 Noroeste 40 Norte 0 -- -- 50
2017-08-13 15:00:00 26.6 14 Norte 35 Norte 0 -- -- 46
2017-08-13 14:00:00 25.9 16 Norte 33 Norte 0 -- -- 41
2017-08-13 13:00:00 25.4 10 Noroeste 22 Norte 0 -- -- 36
2017-08-13 12:00:00 23 4 Norte 13 Nordeste 0 -- -- 46
2017-08-13 11:00:00 18.7 3 Noroeste 5 Oeste 0 -- -- 64
2017-08-13 10:00:00 14.6 0 Calma 3 Nordeste 0 -- -- 78
2017-08-13 09:00:00 10.1 0 Calma 2 Noroeste 0 -- -- 95
2017-08-13 08:00:00 9.9 0 Calma 2 Sudeste 0 -- -- 95
2017-08-13 07:00:00 10.2 0 Calma 2 Sudoeste 0 -- -- 94
2017-08-13 06:00:00 10.9 0 Calma 4 Oeste 0 -- -- 93
2017-08-13 05:00:00 11.5 0 Calma 2 Oeste 0 -- -- 93
2017-08-13 04:00:00 12.2 0 Calma 2 Oeste 0 -- -- 91
2017-08-13 03:00:00 12.9 0 Calma 3 Sudeste 0 -- -- 89
2017-08-13 02:00:00 13.8 0 Calma 4 Oeste 0 -- -- 87
2017-08-13 01:00:00 14.9 0 Calma 4 Sudoeste 0 -- -- 82
2017-08-13 00:00:00 16.3 0 Calma 4 Sudoeste 0 -- -- 78
2017-08-12 23:00:00 18.1 2 Norte 15 Noroeste 0 -- -- 73
2017-08-12 22:00:00 19.4 6 Norte 19 Noroeste 0 -- -- 69
2017-08-12 21:00:00 20.9 9 Norte 35 Noroeste 0 -- -- 63
2017-08-12 20:00:00 22.5 18 Norte 40 Noroeste 0 -- -- 57
2017-08-12 19:00:00 23.6 17 Noroeste 42 Norte 0 -- -- 54
2017-08-12 18:00:00 24.7 23 Norte 46 Norte 0 -- -- 50
2017-08-12 17:00:00 25.6 20 Norte 45 Norte 0 -- -- 47
2017-08-12 16:00:00 26.5 17 Norte 38 Noroeste 0 -- -- 43
2017-08-12 15:00:00 26.3 15 Norte 36 Norte 0 -- -- 39
2017-08-12 14:00:00 25.4 16 Norte 34 Norte 0 -- -- 43
2017-08-12 13:00:00 24.5 9 Noroeste 26 Norte 0 -- -- 44
2017-08-12 12:00:00 22.2 8 Nordeste 13 Nordeste 0 -- -- 47
2017-08-12 11:00:00 18.3 0 Calma 5 Noroeste 0 -- -- 61
2017-08-12 10:00:00 14.1 3 Este 6 Noroeste 0 -- -- 78
2017-08-12 09:00:00 9.4 0 Calma 4 Oeste 0 -- -- 96
2017-08-12 08:00:00 9.1 0 Calma 3 Oeste 0 -- -- 95
2017-08-12 07:00:00 9.4 2 Noroeste 4 Noroeste 0 -- -- 94
2017-08-12 06:00:00 9.9 0 Calma 3 Oeste 0 -- -- 94
2017-08-12 05:00:00 10.4 0 Calma 3 Oeste 0 -- -- 93
2017-08-12 04:00:00 11.1 0 Calma 4 Sur 0 -- -- 92
2017-08-12 03:00:00 11.8 0 Calma 4 Sudoeste 0 -- -- 90
2017-08-12 02:00:00 12.7 0 Calma 3 Oeste 0 -- -- 88
2017-08-12 01:00:00 13.9 0 Calma 5 Sur 0 -- -- 85
2017-08-12 00:00:00 15.1 3 Sur 8 Sudoeste 0 -- -- 81
2017-08-11 23:00:00 16.5 4 Noroeste 9 Noroeste 0 -- -- 76
2017-08-11 22:00:00 17.8 8 Noroeste 18 Noroeste 0 -- -- 72
2017-08-11 21:00:00 19 7 Noroeste 29 Norte 0 -- -- 68
2017-08-11 20:00:00 20.4 14 Noroeste 36 Norte 0 -- -- 62
2017-08-11 19:00:00 22 18 Noroeste 45 Norte 0 -- -- 57
2017-08-11 18:00:00 21.7 23 Norte 47 Norte 0 -- -- 58
2017-08-11 17:00:00 22.4 24 Norte 44 Norte 0 -- -- 56
2017-08-11 16:00:00 22 23 Norte 46 Norte 0 -- -- 55
2017-08-11 15:00:00 22 23 Norte 40 Norte 0 -- -- 54
2017-08-11 14:00:00 22.2 15 Noroeste 28 Norte 0 -- -- 51
2017-08-11 13:00:00 21.8 10 Norte 21 Norte 0 -- -- 47
2017-08-11 12:00:00 20.3 8 Nordeste 14 Oeste 0 -- -- 48
2017-08-11 11:00:00 17.9 5 Nordeste 9 Noroeste 0 -- -- 59
2017-08-11 10:00:00 14.4 2 Nordeste 4 Este 0 -- -- 71
2017-08-11 09:00:00 9.6 0 Calma 4 Noroeste 0 -- -- 91
2017-08-11 08:00:00 9.7 2 Sur 4 Sudoeste 0 -- -- 90
2017-08-11 07:00:00 10.6 2 Sudeste 5 Sur 0 -- -- 88
2017-08-11 06:00:00 11.9 2 Noroeste 5 Sudoeste 0 -- -- 83
2017-08-11 05:00:00 12.6 3 Este 6 Sudeste 0 -- -- 82
2017-08-11 04:00:00 13.1 0 Calma 6 Sudoeste 0 -- -- 79
2017-08-11 03:00:00 13.7 0 Calma 9 Sudeste 0 -- -- 77
2017-08-11 02:00:00 15 5 Sudeste 11 Sudeste 0 -- -- 68
2017-08-11 01:00:00 15.9 3 Sur 16 Noroeste 0 -- -- 67
2017-08-11 00:00:00 16.9 10 Norte 19 Norte 0 -- -- 64
2017-08-10 23:00:00 16.9 6 Norte 18 Norte 0 -- -- 65
2017-08-10 22:00:00 17.4 9 Noroeste 26 Noroeste 0 -- -- 62
2017-08-10 21:00:00 18.1 11 Norte 36 Norte 0 -- -- 58
2017-08-10 20:00:00 19.2 14 Norte 34 Norte 0 -- -- 56
2017-08-10 19:00:00 19.9 18 Norte 42 Nordeste 0 -- -- 53
2017-08-10 18:00:00 20.5 18 Norte 47 Norte 0 -- -- 52
2017-08-10 17:00:00 20.1 23 Norte 45 Nordeste 0 -- -- 54
2017-08-10 16:00:00 21.3 17 Norte 44 Noroeste 0 -- -- 49
2017-08-10 15:00:00 21.8 14 Norte 37 Norte 0 -- -- 42
2017-08-10 14:00:00 21.7 15 Nordeste 37 Norte 0 -- -- 35
2017-08-10 13:00:00 20.9 14 Norte 27 Nordeste 0 -- -- 39
2017-08-10 12:00:00 18.6 4 Noroeste 9 Noroeste 0 -- -- 55
2017-08-10 11:00:00 14.7 3 Noroeste 9 Noroeste 0 -- -- 64
2017-08-10 10:00:00 13.1 0 Calma 6 Este 0 -- -- 70
2017-08-10 09:00:00 10.5 0 Calma 3 Oeste 0 -- -- 80
2017-08-10 08:00:00 10.2 0 Calma 4 Oeste 0 -- -- 80
2017-08-10 07:00:00 9.8 0 Calma 4 Noroeste 0 -- -- 82
2017-08-10 06:00:00 9.6 0 Calma 4 Sudeste 0 -- -- 82
2017-08-10 05:00:00 8.9 0 Calma 5 Oeste 0 -- -- 87
2017-08-10 04:00:00 9.3 0 Calma 4 Sudoeste 0 -- -- 84
2017-08-10 03:00:00 10.4 0 Calma 4 Este 0 -- -- 81
2017-08-10 02:00:00 11.4 0 Calma 5 Sudoeste 0 -- -- 75
2017-08-10 01:00:00 13.5 3 Sudoeste 17 Sur 0 -- -- 67
2017-08-10 00:00:00 14.2 5 Sudeste 21 Norte 0 -- -- 64
2017-08-09 23:00:00 16.1 7 Norte 27 Norte 0 -- -- 57
2017-08-09 22:00:00 16.5 10 Norte 31 Norte 0 -- -- 56
2017-08-09 21:00:00 16.8 14 Norte 31 Nordeste 0 -- -- 56
2017-08-09 20:00:00 17.2 14 Norte 33 Norte 0 -- -- 53
2017-08-09 19:00:00 17.3 15 Norte 33 Nordeste 0 -- -- 56
2017-08-09 18:00:00 18.5 12 Norte 30 Noroeste 0 -- -- 52
2017-08-09 17:00:00 18.2 17 Nordeste 42 Nordeste 0 -- -- 53
2017-08-09 16:00:00 19.5 14 Norte 40 Norte 0 -- -- 46
2017-08-09 15:00:00 18.4 14 Norte 41 Nordeste 0 -- -- 48
2017-08-09 14:00:00 18.4 19 Norte 50 Norte 0 -- -- 46
2017-08-09 13:00:00 18.4 25 Norte 50 Noroeste 0 -- -- 46
2017-08-09 12:00:00 18.8 19 Norte 36 Norte 0 -- -- 44
2017-08-09 11:00:00 16.8 21 Norte 41 Norte 0 -- -- 51
2017-08-09 10:00:00 14 3 Oeste 11 Sudeste 0 -- -- 75
2017-08-09 09:00:00 12.9 3 Noroeste 10 Sur 0 -- -- 78
2017-08-09 08:00:00 12.4 6 Sudeste 15 Sur 0 -- -- 78
2017-08-09 07:00:00 11.6 3 Sudeste 6 Sur 0 -- -- 86
2017-08-09 06:00:00 11.5 2 Noroeste 5 Sudoeste 0 -- -- 84
2017-08-09 05:00:00 12.7 0 Calma 4 Oeste 0 -- -- 80
2017-08-09 04:00:00 14.6 2 Noroeste 6 Sudoeste 0 -- -- 75
2017-08-09 03:00:00 15.7 2 Noroeste 4 Oeste 0 -- -- 73
2017-08-09 02:00:00 16.2 2 Norte 9 Sudoeste 0 -- -- 68
2017-08-09 01:00:00 16.5 4 Oeste 10 Noroeste 0 -- -- 66
2017-08-09 00:00:00 17.1 5 Noroeste 22 Noroeste 0 -- -- 59
2017-08-08 23:00:00 16.9 11 Noroeste 25 Norte 0 -- -- 60
2017-08-08 22:00:00 16.9 11 Noroeste 24 Noroeste 0 -- -- 66
2017-08-08 21:00:00 17.6 7 Noroeste 33 Norte 0 -- -- 67
2017-08-08 20:00:00 18.2 13 Norte 37 Noroeste 0 -- -- 63
2017-08-08 19:00:00 20 14 Norte 33 Nordeste 0 -- -- 57
2017-08-08 18:00:00 20.7 13 Norte 43 Nordeste 0 -- -- 55
2017-08-08 17:00:00 21.3 16 Norte 41 Nordeste 0 -- -- 52
2017-08-08 16:00:00 22.3 14 Norte 36 Norte 0 -- -- 47
2017-08-08 15:00:00 22.3 14 Noroeste 30 Norte 0 -- -- 41
2017-08-08 14:00:00 21.3 10 Nordeste 32 Nordeste 0 -- -- 47
2017-08-08 13:00:00 20.4 13 Norte 30 Este 0 -- -- 50
2017-08-08 12:00:00 18.8 13 Norte 32 Norte 0 -- -- 56
2017-08-08 11:00:00 18.2 3 Sur 9 Nordeste 0 -- -- 62
2017-08-08 10:00:00 16.6 3 Este 6 Nordeste 0 -- -- 72
2017-08-08 09:00:00 13 3 Norte 5 Norte 0 -- -- 87
2017-08-08 08:00:00 12.8 2 Sudeste 5 Sudoeste 0 -- -- 86
2017-08-08 07:00:00 14.3 0 Calma 12 Sudeste 0 -- -- 83
2017-08-08 06:00:00 15.6 6 Sur 20 Noroeste 0 -- -- 79
2017-08-08 05:00:00 16 7 Norte 21 Noroeste 0 -- -- 70
2017-08-08 04:00:00 16.3 8 Noroeste 24 Norte 0 -- -- 69
2017-08-08 03:00:00 16.8 8 Noroeste 29 Norte 0 -- -- 66
2017-08-08 02:00:00 17.2 10 Noroeste 34 Norte 0 -- -- 64
2017-08-08 01:00:00 17.3 14 Norte 35 Norte 0 -- -- 68
2017-08-08 00:00:00 17.7 7 Noroeste 28 Nordeste 0 -- -- 71
2017-08-07 23:00:00 17.7 11 Norte 35 Norte 0 -- -- 72
2017-08-07 22:00:00 17.8 15 Norte 41 Norte 0 -- -- 71
2017-08-07 21:00:00 18.4 15 Norte 38 Norte 0 -- -- 74
2017-08-07 20:00:00 19.3 14 Noroeste 33 Nordeste 0 -- -- 70
2017-08-07 19:00:00 19.6 14 Noroeste 29 Noroeste 0 -- -- 71
2017-08-07 18:00:00 20.5 15 Norte 33 Norte 0 -- -- 69
2017-08-07 17:00:00 21.4 13 Norte 35 Norte 0 -- -- 65
2017-08-07 16:00:00 21.5 17 Norte 39 Norte 0 -- -- 65
2017-08-07 15:00:00 21.6 17 Norte 42 Norte 0 -- -- 64
2017-08-07 14:00:00 21.6 22 Noroeste 40 Noroeste 0 -- -- 63
2017-08-07 13:00:00 21.1 20 Norte 37 Norte 0 -- -- 62
2017-08-07 12:00:00 20.5 10 Noroeste 20 Norte 0 -- -- 63
2017-08-07 11:00:00 19.1 2 Noroeste 5 Noroeste 0 -- -- 65
2017-08-07 10:00:00 18.4 2 Sudoeste 8 Sur 0 -- -- 69
2017-08-07 09:00:00 17.5 0 Calma 6 Sudoeste 0 -- -- 72
2017-08-07 08:00:00 17.1 0 Calma 8 Nordeste 0 -- -- 80
2017-08-07 07:00:00 17 0 Calma 3 Oeste 0 -- -- 81
2017-08-07 06:00:00 17.2 2 Sur 6 Sudoeste 0 -- -- 80
2017-08-07 05:00:00 17.2 2 Noroeste 4 Noroeste 0 -- -- 81
2017-08-07 04:00:00 17.3 0 Calma 3 Oeste 0 -- -- 79
2017-08-07 03:00:00 17.5 0 Calma 3 Noroeste 0 -- -- 79
2017-08-07 02:00:00 17.7 0 Calma 3 Sudoeste 0 -- -- 78
2017-08-07 01:00:00 18 2 Sudoeste 5 Oeste 0 -- -- 75
2017-08-07 00:00:00 18.2 0 Calma 6 Noroeste 0 -- -- 74
2017-08-06 23:00:00 18.3 3 Norte 13 Noroeste 0 -- -- 73
2017-08-06 22:00:00 18.4 8 Norte 15 Nordeste 0 -- -- 72
2017-08-06 21:00:00 18.8 6 Norte 19 Norte 0 -- -- 70
2017-08-06 20:00:00 19.3 6 Norte 22 Norte 0 -- -- 67
2017-08-06 19:00:00 19.9 10 Noroeste 31 Noroeste 0 -- -- 65
2017-08-06 18:00:00 19.9 13 Noroeste 33 Noroeste 0 -- -- 64
2017-08-06 17:00:00 21 13 Norte 31 Oeste 0 -- -- 60
2017-08-06 16:00:00 22.2 12 Norte 26 Norte 0 -- -- 53
2017-08-06 15:00:00 21.6 8 Noroeste 25 Noroeste 0 -- -- 54
2017-08-06 14:00:00 21.1 8 Norte 18 Nordeste 0 -- -- 56
2017-08-06 13:00:00 20 6 Noroeste 19 Norte 0 -- -- 60
2017-08-06 12:00:00 18.6 7 Norte 22 Nordeste 0 -- -- 66
2017-08-06 11:00:00 17.8 7 Norte 16 Norte 0 -- -- 71
2017-08-06 10:00:00 17.1 7 Norte 23 Noroeste 0 -- -- 74
2017-08-06 09:00:00 16.5 7 Norte 19 Noroeste 0 -- -- 76
2017-08-06 08:00:00 16.3 7 Norte 18 Norte 0 -- -- 76
2017-08-06 07:00:00 16.2 7 Norte 23 Noroeste 0 -- -- 80
2017-08-06 06:00:00 16.4 5 Noroeste 20 Norte 0 -- -- 81
2017-08-06 05:00:00 16.1 8 Norte 18 Noroeste 0 -- -- 85
2017-08-06 04:00:00 16.2 0 Calma 9 Nordeste 0 -- -- 89
2017-08-06 03:00:00 16.2 5 Nordeste 8 Nordeste 0 -- -- 89
2017-08-06 02:00:00 16.5 4 Nordeste 8 Norte 0 -- -- 84
2017-08-06 01:00:00 16.9 2 Sur 8 Norte 0 -- -- 81
2017-08-06 00:00:00 16.9 5 Noroeste 15 Noroeste 0 -- -- 80
2017-08-05 23:00:00 17.3 7 Noroeste 20 Norte 0 -- -- 77
2017-08-05 22:00:00 17.4 8 Noroeste 23 Norte 0 -- -- 77
2017-08-05 21:00:00 17.5 15 Norte 31 Norte 0 -- -- 76
2017-08-05 20:00:00 18.1 13 Noroeste 30 Noroeste 0 -- -- 74
2017-08-05 19:00:00 18.5 11 Noroeste 30 Noroeste 0 -- -- 73
2017-08-05 18:00:00 19.2 16 Norte 36 Norte 0 -- -- 70
2017-08-05 17:00:00 19.7 15 Noroeste 36 Noroeste 0 -- -- 71
2017-08-05 16:00:00 19.6 16 Noroeste 36 Norte 0 -- -- 70
2017-08-05 15:00:00 19.6 16 Noroeste 37 Norte 0 -- -- 71
2017-08-05 14:00:00 19.4 20 Norte 36 Norte 0 -- -- 70
2017-08-05 13:00:00 19.6 12 Noroeste 31 Noroeste 0 -- -- 71
2017-08-05 12:00:00 19.4 15 Noroeste 29 Noroeste 0 -- -- 73
2017-08-05 11:00:00 19.2 15 Norte 30 Norte 0 -- -- 74
2017-08-05 10:00:00 19.2 11 Norte 28 Noroeste 0 -- -- 77
2017-08-05 09:00:00 19 15 Norte 34 Noroeste 0 -- -- 80
2017-08-05 08:00:00 19.8 18 Noroeste 41 Norte 0 -- -- 75
2017-08-05 07:00:00 20.6 19 Norte 40 Noroeste 0 -- -- 76
2017-08-05 06:00:00 21.3 17 Norte 32 Norte 0 -- -- 79
2017-08-05 05:00:00 21.3 10 Noroeste 24 Norte 0 -- -- 86
2017-08-05 04:00:00 22 13 Noroeste 27 Norte 0 -- -- 83
2017-08-05 03:00:00 22.1 4 Nordeste 10 Nordeste 0 -- -- 84
2017-08-05 02:00:00 22.5 4 Nordeste 6 Nordeste 0 -- -- 82
2017-08-05 01:00:00 22.6 3 Noroeste 12 Norte 0 -- -- 81
2017-08-05 00:00:00 22.7 6 Norte 17 Norte 0 -- -- 80
2017-08-04 23:00:00 22.9 11 Norte 20 Norte 0 -- -- 80
2017-08-04 22:00:00 23.5 9 Noroeste 28 Norte 0 -- -- 78
2017-08-04 21:00:00 24.3 12 Norte 35 Norte 0 -- -- 73
2017-08-04 20:00:00 26.1 19 Norte 36 Noroeste 0 -- -- 67
2017-08-04 19:00:00 27.2 16 Noroeste 44 Noroeste 0 -- -- 62
2017-08-04 18:00:00 27.7 19 Norte 52 Noroeste 0 -- -- 61
2017-08-04 17:00:00 28.3 28 Norte 51 Norte 0 -- -- 58
2017-08-04 16:00:00 30 17 Noroeste 40 Norte 0 -- -- 54
2017-08-04 15:00:00 30.2 15 Norte 37 Norte 0 -- -- 52
2017-08-04 14:00:00 30.1 17 Norte 32 Noroeste 0 -- -- 51
2017-08-04 13:00:00 29.8 11 Norte 26 Noroeste 0 -- -- 51
2017-08-04 12:00:00 27.6 4 Nordeste 11 Nordeste 0 -- -- 56
2017-08-04 11:00:00 23.8 3 Noroeste 6 Norte 0 -- -- 70
2017-08-04 10:00:00 19.8 0 Calma 4 Norte 0 -- -- 83
2017-08-04 09:00:00 15.6 0 Calma 4 Noroeste 0 -- -- 96
2017-08-04 08:00:00 15.2 0 Calma 3 Sur 0 -- -- 96
2017-08-04 07:00:00 15.3 0 Calma 4 Sudeste 0 -- -- 95
2017-08-04 06:00:00 15.5 0 Calma 4 Noroeste 0 -- -- 95
2017-08-04 05:00:00 15.9 0 Calma 3 Oeste 0 -- -- 94
2017-08-04 04:00:00 16.3 0 Calma 4 Oeste 0 -- -- 94
2017-08-04 03:00:00 16.9 0 Calma 4 Este 0 -- -- 92
2017-08-04 02:00:00 17.2 3 Sudoeste 5 Sudoeste 0 -- -- 92
2017-08-04 01:00:00 18 0 Calma 4 Sudoeste 0 -- -- 89
2017-08-04 00:00:00 18.7 0 Calma 4 Sudoeste 0 -- -- 87
2017-08-03 23:00:00 19.9 3 Noroeste 10 Noroeste 0 -- -- 84
2017-08-03 22:00:00 20.6 2 Oeste 14 Noroeste 0 -- -- 82
2017-08-03 21:00:00 21.2 8 Noroeste 30 Norte 0 -- -- 80
2017-08-03 20:00:00 22.4 11 Norte 34 Norte 0 -- -- 75
2017-08-03 19:00:00 23.3 15 Norte 36 Noroeste 0 -- -- 72
2017-08-03 18:00:00 23.5 12 Norte 46 Noroeste 0 -- -- 71
2017-08-03 17:00:00 23.8 19 Noroeste 48 Noroeste 0 -- -- 71
2017-08-03 16:00:00 25.3 20 Norte 54 Noroeste 0 -- -- 63
2017-08-03 15:00:00 26.2 20 Noroeste 48 Norte 0 -- -- 59
2017-08-03 14:00:00 26.3 19 Norte 40 Norte 0 -- -- 56
2017-08-03 13:00:00 26.5 18 Norte 36 Norte 0 -- -- 54
2017-08-03 12:00:00 26.6 8 Noroeste 17 Norte 0 -- -- 51
2017-08-03 11:00:00 22.5 2 Oeste 5 Noroeste 0 -- -- 64
2017-08-03 10:00:00 18.5 0 Calma 3 Noroeste 0 -- -- 75
2017-08-03 09:00:00 13.9 0 Calma 3 Oeste 0 -- -- 94
2017-08-03 08:00:00 13.3 0 Calma 4 Noroeste 0 -- -- 95
2017-08-03 07:00:00 13.4 0 Calma 3 Noroeste 0 -- -- 94
2017-08-03 06:00:00 13.6 0 Calma 4 Sur 0 -- -- 93
2017-08-03 05:00:00 14.1 0 Calma 4 Sur 0 -- -- 92
2017-08-03 04:00:00 14.6 0 Calma 3 Sudeste 0 -- -- 90
2017-08-03 03:00:00 15.2 2 Oeste 4 Sudoeste 0 -- -- 89
2017-08-03 02:00:00 16 0 Calma 2 Sur 0 -- -- 84
2017-08-03 01:00:00 16.9 0 Calma 4 Sudoeste 0 -- -- 81
2017-08-03 00:00:00 18.3 0 Calma 4 Oeste 0 -- -- 75
2017-08-02 23:00:00 20.3 0 Calma 11 Sudoeste 0 -- -- 68
2017-08-02 22:00:00 21.7 2 Sur 10 Noroeste 0 -- -- 63
2017-08-02 21:00:00 24 5 Noroeste 31 Noroeste 0 -- -- 56
2017-08-02 20:00:00 25.8 12 Noroeste 37 Norte 0 -- -- 56
2017-08-02 19:00:00 26.5 16 Noroeste 49 Norte 0 -- -- 54
2017-08-02 18:00:00 25.6 25 Norte 55 Noroeste 0 -- -- 61
2017-08-02 17:00:00 26.2 28 Norte 49 Norte 0 -- -- 59
2017-08-02 16:00:00 26.9 21 Norte 51 Norte 0 -- -- 58
2017-08-02 15:00:00 26.2 25 Norte 46 Norte 0 -- -- 60
2017-08-02 14:00:00 27.2 16 Noroeste 31 Norte 0 -- -- 56
2017-08-02 13:00:00 26.7 10 Norte 19 Norte 0 -- -- 54
2017-08-02 12:00:00 24.9 3 Sudoeste 9 Sudeste 0 -- -- 58
2017-08-02 11:00:00 21.9 4 Oeste 9 Norte 0 -- -- 67
2017-08-02 10:00:00 18.6 3 Este 4 Noroeste 0 -- -- 76
2017-08-02 09:00:00 14.6 0 Calma 6 Sur 0 -- -- 91
2017-08-02 08:00:00 14.1 0 Calma 4 Sudoeste 0 -- -- 94
2017-08-02 07:00:00 14.4 0 Calma 6 Sur 0 -- -- 93
2017-08-02 06:00:00 15.3 0 Calma 5 Sudoeste 0 -- -- 91
2017-08-02 05:00:00 17 3 Sur 8 Sur 0 -- -- 86
2017-08-02 04:00:00 18.2 0 Calma 7 Oeste 0 -- -- 86
2017-08-02 03:00:00 18.9 0 Calma 5 Nordeste 0 -- -- 86
2017-08-02 02:00:00 19 3 Norte 7 Nordeste 0 -- -- 85
2017-08-02 01:00:00 19.3 3 Noroeste 8 Norte 0 -- -- 83
2017-08-02 00:00:00 19.5 3 Norte 9 Noroeste 0 -- -- 81
2017-08-01 23:00:00 19.7 5 Norte 16 Norte 0 -- -- 80
2017-08-01 22:00:00 20.1 6 Norte 17 Norte 0 -- -- 77
2017-08-01 21:00:00 20.4 7 Norte 24 Oeste 0 -- -- 75
2017-08-01 20:00:00 21.1 13 Norte 33 Norte 0 -- -- 71
2017-08-01 19:00:00 22.4 14 Noroeste 33 Norte 0 -- -- 67
2017-08-01 18:00:00 21.6 19 Norte 34 Norte 0 -- -- 69
2017-08-01 17:00:00 22.6 15 Norte 37 Norte 0 -- -- 66
2017-08-01 16:00:00 22.3 20 Norte 44 Noroeste 0 -- -- 66
2017-08-01 15:00:00 22 19 Norte 42 Norte 0 -- -- 67
2017-08-01 14:00:00 22.1 21 Norte 39 Noroeste 0 -- -- 66
2017-08-01 13:00:00 22.9 15 Noroeste 27 Norte 0 -- -- 63
2017-08-01 12:00:00 21.4 10 Norte 20 Nordeste 0 -- -- 72
2017-08-01 11:00:00 19.3 5 Norte 11 Norte 0 -- -- 84
2017-08-01 10:00:00 18.2 3 Norte 5 Noroeste 0 -- -- 87
2017-08-01 09:00:00 17.5 0 Calma 2 Norte 0 -- -- 93
2017-08-01 08:00:00 17 0 Calma 3 Noroeste 0 -- -- 94
2017-08-01 07:00:00 16.9 2 Noroeste 4 Noroeste 0 -- -- 94
2017-08-01 06:00:00 17 0 Calma 5 Noroeste 0.2 -- -- 93
2017-08-01 05:00:00 17.2 0 Calma 5 Norte 0 -- -- 90
2017-08-01 04:00:00 17.2 3 Norte 5 Norte 0 -- -- 90
2017-08-01 03:00:00 17.3 2 Sudeste 8 Nordeste 0 -- -- 89
2017-08-01 02:00:00 17.3 0 Calma 4 Noroeste 0 -- -- 90
2017-08-01 01:00:00 17.4 2 Oeste 5 Sudoeste 0 -- -- 89
2017-08-01 00:00:00 17.6 3 Sur 9 Norte 0 -- -- 88
2017-07-31 23:00:00 17.9 2 Sudeste 11 Norte 0 -- -- 84
2017-07-31 22:00:00 18.3 5 Noroeste 17 Noroeste 0 -- -- 82
2017-07-31 21:00:00 18.5 5 Norte 17 Norte 0 -- -- 81
2017-07-31 20:00:00 19.4 9 Norte 22 Noroeste 0 -- -- 74
2017-07-31 19:00:00 19.8 11 Noroeste 23 Noroeste 0 -- -- 73
2017-07-31 18:00:00 20 10 Noroeste 22 Noroeste 0 -- -- 71
2017-07-31 17:00:00 19.7 7 Norte 21 Norte 0 -- -- 73
2017-07-31 16:00:00 19.4 6 Norte 20 Norte 0 -- -- 77
2017-07-31 15:00:00 19.4 6 Noroeste 14 Norte 0.4 -- -- 78
2017-07-31 14:00:00 19.3 6 Norte 16 Norte 0 -- -- 75
2017-07-31 13:00:00 19.9 4 Noroeste 17 Noroeste 0 -- -- 69
2017-07-31 12:00:00 19.9 7 Norte 12 Noroeste 0 -- -- 64
2017-07-31 11:00:00 19.4 0 Calma 8 Sudoeste 0 -- -- 66
2017-07-31 10:00:00 18 4 Sur 6 Sur 0 -- -- 76
2017-07-31 09:00:00 17.1 2 Oeste 4 Oeste 0 -- -- 85
2017-07-31 08:00:00 16.4 0 Calma 4 Oeste 0 -- -- 88
2017-07-31 07:00:00 16.2 2 Sudoeste 4 Sudoeste 0 -- -- 89
2017-07-31 06:00:00 16.3 0 Calma 4 Oeste 0 -- -- 89
2017-07-31 05:00:00 16.5 0 Calma 5 Sur 0 -- -- 89
2017-07-31 04:00:00 16.6 4 Sudeste 6 Sur 0 -- -- 88
2017-07-31 03:00:00 16.8 3 Sur 5 Sur 0 -- -- 86
2017-07-31 02:00:00 16.8 2 Sur 6 Sudeste 0 -- -- 86
2017-07-31 01:00:00 16.9 5 Sudeste 8 Sur 0 -- -- 85
2017-07-31 00:00:00 17.2 4 Sur 8 Sudeste 0 -- -- 83
2017-07-30 23:00:00 17.5 3 Sudoeste 14 Norte 0 -- -- 82
2017-07-30 22:00:00 17.7 12 Norte 27 Noroeste 0 -- -- 76
2017-07-30 21:00:00 18.4 13 Noroeste 37 Norte 0 -- -- 75
2017-07-30 20:00:00 18.8 20 Norte 44 Norte 0 -- -- 71
2017-07-30 19:00:00 19.3 17 Norte 40 Norte 0 -- -- 70
2017-07-30 18:00:00 20.1 15 Norte 42 Noroeste 0 -- -- 72
2017-07-30 17:00:00 21.3 21 Noroeste 46 Norte 0 -- -- 68
2017-07-30 16:00:00 21.4 20 Norte 44 Noroeste 0 -- -- 69
2017-07-30 15:00:00 21.6 23 Noroeste 54 Noroeste 0 -- -- 68
2017-07-30 14:00:00 22.6 20 Norte 46 Norte 0 -- -- 66
2017-07-30 13:00:00 22.4 23 Noroeste 45 Noroeste 0 -- -- 68
2017-07-30 12:00:00 23.6 12 Norte 25 Norte 0 -- -- 64
2017-07-30 11:00:00 22.9 10 Norte 21 Nordeste 0 -- -- 68
2017-07-30 10:00:00 22.3 0 Calma 5 Noroeste 0 -- -- 70
2017-07-30 09:00:00 20.4 4 Sur 8 Sudeste 0 -- -- 77
2017-07-30 08:00:00 19.6 4 Sudeste 10 Sudeste 0 -- -- 79
2017-07-30 07:00:00 19.2 4 Sur 5 Sur 0 -- -- 81
2017-07-30 06:00:00 19.2 0 Calma 4 Sudoeste 0 -- -- 81
2017-07-30 05:00:00 20.2 4 Sudeste 8 Sudeste 0 -- -- 77
2017-07-30 04:00:00 19.8 0 Calma 9 Sudeste 0 -- -- 78
2017-07-30 03:00:00 19.4 0 Calma 12 Sudeste 0 -- -- 79
2017-07-30 02:00:00 20 0 Calma 9 Este 0 -- -- 78
2017-07-30 01:00:00 20.7 0 Calma 10 Sudoeste 0 -- -- 75
2017-07-30 00:00:00 22.2 4 Sur 19 Norte 0 -- -- 69
2017-07-29 23:00:00 23.8 7 Noroeste 19 Norte 0 -- -- 63
2017-07-29 22:00:00 25.1 9 Norte 27 Norte 0 -- -- 60
2017-07-29 21:00:00 26.8 14 Noroeste 33 Noroeste 0 -- -- 55
2017-07-29 20:00:00 27.2 17 Noroeste 42 Norte 0 -- -- 56
2017-07-29 19:00:00 28.3 19 Norte 42 Norte 0 -- -- 54
2017-07-29 18:00:00 29.3 18 Noroeste 37 Noroeste 0 -- -- 53
2017-07-29 17:00:00 29.9 15 Norte 37 Noroeste 0 -- -- 51
2017-07-29 16:00:00 29.4 17 Norte 35 Norte 0 -- -- 50
2017-07-29 15:00:00 28.3 17 Norte 38 Norte 0 -- -- 51
2017-07-29 14:00:00 28 15 Norte 31 Norte 0 -- -- 51
2017-07-29 13:00:00 27.9 15 Norte 30 Norte 0 -- -- 48
2017-07-29 12:00:00 26.9 3 Norte 9 Noroeste 0 -- -- 47
2017-07-29 11:00:00 23.6 3 Noroeste 8 Oeste 0 -- -- 58
2017-07-29 10:00:00 20.1 3 Noroeste 5 Noroeste 0 -- -- 70
2017-07-29 09:00:00 15.8 0 Calma 4 Nordeste 0 -- -- 87
2017-07-29 08:00:00 14.9 3 Noroeste 5 Norte 0 -- -- 91
2017-07-29 07:00:00 15.1 0 Calma 3 Sudeste 0 -- -- 89
2017-07-29 06:00:00 15.9 2 Sur 4 Sudeste 0 -- -- 87
2017-07-29 05:00:00 16.5 0 Calma 3 Noroeste 0 -- -- 86
2017-07-29 04:00:00 16.9 0 Calma 3 Oeste 0 -- -- 85
2017-07-29 03:00:00 17.7 0 Calma 4 Sudoeste 0 -- -- 80
2017-07-29 02:00:00 18.7 0 Calma 4 Sur 0 -- -- 77
2017-07-29 01:00:00 19.8 0 Calma 5 Sur 0 -- -- 72
2017-07-29 00:00:00 20.8 0 Calma 5 Sudoeste 0 -- -- 68
2017-07-28 23:00:00 22.3 0 Calma 21 Noroeste 0 -- -- 62
2017-07-28 22:00:00 24 7 Norte 21 Noroeste 0 -- -- 53
2017-07-28 21:00:00 25 9 Norte 33 Norte 0 -- -- 49
2017-07-28 20:00:00 27.2 13 Noroeste 36 Norte 0 -- -- 45
2017-07-28 19:00:00 28.1 14 Noroeste 45 Norte 0 -- -- 43
2017-07-28 18:00:00 27.4 19 Norte 49 Norte 0 -- -- 48
2017-07-28 17:00:00 27.6 24 Norte 46 Noroeste 0 -- -- 52
2017-07-28 16:00:00 28.1 21 Norte 50 Norte 0 -- -- 45
2017-07-28 15:00:00 27.7 20 Norte 38 Norte 0 -- -- 45
2017-07-28 14:00:00 27.1 12 Noroeste 29 Norte 0 -- -- 49
2017-07-28 13:00:00 25.8 10 Norte 22 Norte 0 -- -- 61
2017-07-28 12:00:00 23.9 11 Nordeste 21 Norte 0 -- -- 66
2017-07-28 11:00:00 22.3 8 Nordeste 15 Nordeste 0 -- -- 72
2017-07-28 10:00:00 20.7 6 Nordeste 10 Nordeste 0 -- -- 78
2017-07-28 09:00:00 19.1 3 Nordeste 10 Nordeste 0 -- -- 84
2017-07-28 08:00:00 18.6 8 Nordeste 12 Norte 0 -- -- 86
2017-07-28 07:00:00 18.8 3 Noroeste 7 Norte 0 -- -- 85
2017-07-28 06:00:00 19 0 Calma 8 Nordeste 0 -- -- 84
2017-07-28 05:00:00 19.1 4 Nordeste 7 Nordeste 0 -- -- 84
2017-07-28 04:00:00 19.2 0 Calma 6 Noroeste 0 -- -- 85
2017-07-28 03:00:00 19.2 0 Calma 9 Sur 0 -- -- 87
2017-07-28 02:00:00 19.5 3 Sudeste 15 Noroeste 0 -- -- 85
2017-07-28 01:00:00 20.2 6 Noroeste 23 Norte 0 -- -- 79
2017-07-28 00:00:00 20.6 8 Noroeste 17 Noroeste 0 -- -- 79
2017-07-27 23:00:00 20.8 6 Noroeste 23 Norte 0 -- -- 79
2017-07-27 22:00:00 21.1 11 Norte 31 Norte 0 -- -- 79
2017-07-27 21:00:00 21.2 12 Norte 35 Norte 0 -- -- 81
2017-07-27 20:00:00 22.4 15 Norte 36 Norte 0 -- -- 75
2017-07-27 19:00:00 25.7 17 Noroeste 37 Norte 0 -- -- 62
2017-07-27 18:00:00 26.2 20 Norte 40 Noroeste 0 -- -- 59
2017-07-27 17:00:00 26.9 21 Noroeste 48 Norte 0 -- -- 57
2017-07-27 16:00:00 27.2 22 Noroeste 49 Noroeste 0 -- -- 55
2017-07-27 15:00:00 27.3 24 Norte 44 Norte 0 -- -- 53
2017-07-27 14:00:00 27.8 19 Noroeste 37 Norte 0 -- -- 51
2017-07-27 13:00:00 27.8 15 Noroeste 30 Nordeste 0 -- -- 48
2017-07-27 12:00:00 26 5 Norte 15 Nordeste 0 -- -- 52
2017-07-27 11:00:00 22.3 2 Noroeste 6 Noroeste 0 -- -- 63
2017-07-27 10:00:00 18.5 0 Calma 4 Este 0 -- -- 77
2017-07-27 09:00:00 13.4 0 Calma 4 Noroeste 0 -- -- 96
2017-07-27 08:00:00 12.7 0 Calma 3 Oeste 0 -- -- 95
2017-07-27 07:00:00 12.9 0 Calma 2 Oeste 0 -- -- 95
2017-07-27 06:00:00 13.4 0 Calma 2 Oeste 0 -- -- 93
2017-07-27 05:00:00 14.1 0 Calma 3 Oeste 0 -- -- 93
2017-07-27 04:00:00 14.7 3 Noroeste 5 Noroeste 0 -- -- 91
2017-07-27 03:00:00 15.5 0 Calma 3 Sudoeste 0 -- -- 89
2017-07-27 02:00:00 16.3 0 Calma 4 Noroeste 0 -- -- 87
2017-07-27 01:00:00 17.2 0 Calma 4 Oeste 0 -- -- 84
2017-07-27 00:00:00 18.7 3 Oeste 13 Norte 0 -- -- 78
2017-07-26 23:00:00 20.3 8 Nordeste 14 Nordeste 0 -- -- 74
2017-07-26 22:00:00 22 3 Norte 20 Nordeste 0 -- -- 67
2017-07-26 21:00:00 23.7 9 Norte 28 Noroeste 0 -- -- 61
2017-07-26 20:00:00 26.2 12 Noroeste 33 Norte 0 -- -- 50
2017-07-26 19:00:00 27.9 16 Norte 36 Norte 0 -- -- 44
2017-07-26 18:00:00 28.4 12 Norte 38 Nordeste 0 -- -- 42
2017-07-26 17:00:00 28.3 18 Noroeste 37 Norte 0 -- -- 45
2017-07-26 16:00:00 27.8 15 Noroeste 37 Norte 0 -- -- 47
2017-07-26 15:00:00 27.3 15 Noroeste 41 Noroeste 0 -- -- 49
2017-07-26 14:00:00 26.7 15 Noroeste 34 Norte 0 -- -- 49
2017-07-26 13:00:00 25.5 15 Noroeste 29 Norte 0 -- -- 51
2017-07-26 12:00:00 23.9 6 Nordeste 13 Norte 0 -- -- 53
2017-07-26 11:00:00 20.8 4 Noroeste 9 Oeste 0 -- -- 64
2017-07-26 10:00:00 16.9 0 Calma 7 Noroeste 0 -- -- 76
2017-07-26 09:00:00 12.4 0 Calma 4 Norte 0 -- -- 94
2017-07-26 08:00:00 11.5 0 Calma 3 Oeste 0 -- -- 95
2017-07-26 07:00:00 11.5 0 Calma 4 Sudoeste 0 -- -- 94
2017-07-26 06:00:00 11.9 0 Calma 3 Oeste 0 -- -- 94
2017-07-26 05:00:00 12.4 0 Calma 4 Oeste 0 -- -- 92
2017-07-26 04:00:00 12.9 0 Calma 3 Sudoeste 0 -- -- 92
2017-07-26 03:00:00 13.5 0 Calma 4 Sudoeste 0 -- -- 90
2017-07-26 02:00:00 14.3 0 Calma 4 Sudoeste 0 -- -- 87
2017-07-26 01:00:00 15.4 0 Calma 9 Sudoeste 0 -- -- 83
2017-07-26 00:00:00 16.2 2 Sudoeste 12 Noroeste 0 -- -- 80
2017-07-25 23:00:00 17.6 6 Noroeste 16 Noroeste 0 -- -- 75
2017-07-25 22:00:00 18.7 6 Noroeste 30 Norte 0 -- -- 71
2017-07-25 21:00:00 19.4 11 Norte 31 Noroeste 0 -- -- 68
2017-07-25 20:00:00 20.5 16 Noroeste 35 Norte 0 -- -- 65
2017-07-25 19:00:00 21.6 19 Noroeste 38 Noroeste 0 -- -- 60
2017-07-25 18:00:00 21.4 21 Norte 40 Norte 0 -- -- 61
2017-07-25 17:00:00 22 23 Norte 48 Noroeste 0 -- -- 59
2017-07-25 16:00:00 22.7 19 Norte 41 Norte 0 -- -- 55
2017-07-25 15:00:00 22.6 19 Noroeste 32 Norte 0 -- -- 55
2017-07-25 14:00:00 22.2 12 Norte 28 Norte 0 -- -- 54
2017-07-25 13:00:00 22.3 12 Norte 20 Norte 0 -- -- 52
2017-07-25 12:00:00 20.3 9 Norte 20 Norte 0 -- -- 58
2017-07-25 11:00:00 19.4 6 Norte 16 Norte 0 -- -- 65
2017-07-25 10:00:00 17.8 0 Calma 7 Norte 0 -- -- 70
2017-07-25 09:00:00 16.1 0 Calma 3 Oeste 0 -- -- 76
2017-07-25 08:00:00 15 0 Calma 5 Oeste 0 -- -- 82
2017-07-25 07:00:00 14.9 0 Calma 3 Noroeste 0 -- -- 83
2017-07-25 06:00:00 15.8 0 Calma 8 Sudeste 0 -- -- 80
2017-07-25 05:00:00 16.7 4 Sur 10 Sur 0 -- -- 75
2017-07-25 04:00:00 17.1 4 Sudoeste 8 Norte 0 -- -- 72
2017-07-25 03:00:00 17.8 4 Norte 15 Noroeste 0 -- -- 68
2017-07-25 02:00:00 18.3 6 Norte 22 Noroeste 0 -- -- 65
2017-07-25 01:00:00 18.4 11 Noroeste 24 Norte 0 -- -- 65
2017-07-25 00:00:00 18.7 10 Noroeste 28 Norte 0 -- -- 66
2017-07-24 23:00:00 19 9 Noroeste 20 Norte 0 -- -- 68
2017-07-24 22:00:00 19.5 9 Noroeste 23 Norte 0 -- -- 66
2017-07-24 21:00:00 20.1 12 Noroeste 25 Oeste 0 -- -- 64
2017-07-24 20:00:00 20.9 16 Norte 32 Norte 0 -- -- 62
2017-07-24 19:00:00 22.1 13 Noroeste 36 Norte 0 -- -- 57
2017-07-24 18:00:00 23.1 16 Noroeste 41 Norte 0 -- -- 55
2017-07-24 17:00:00 23.4 18 Norte 45 Norte 0 -- -- 55
2017-07-24 16:00:00 23.9 16 Noroeste 48 Norte 0 -- -- 52
2017-07-24 15:00:00 24.6 14 Norte 35 Norte 0 -- -- 49
2017-07-24 14:00:00 23.5 17 Norte 37 Nordeste 0 -- -- 53
2017-07-24 13:00:00 23.9 12 Norte 37 Norte 0 -- -- 52
2017-07-24 12:00:00 22.9 9 Norte 32 Norte 0 -- -- 55
2017-07-24 11:00:00 22.2 10 Norte 24 Noroeste 0 -- -- 61
2017-07-24 10:00:00 20.7 3 Este 6 Noroeste 0 -- -- 70
2017-07-24 09:00:00 16 3 Norte 9 Noroeste 0 -- -- 92
2017-07-24 08:00:00 15 3 Este 5 Oeste 0 -- -- 93
2017-07-24 07:00:00 14.9 3 Noroeste 5 Sudoeste 0 -- -- 93
2017-07-24 06:00:00 15.5 0 Calma 6 Sudeste 0 -- -- 91
2017-07-24 05:00:00 16.1 0 Calma 6 Sudoeste 0 -- -- 90
2017-07-24 04:00:00 16.9 0 Calma 5 Sudoeste 0 -- -- 87
2017-07-24 03:00:00 18.1 2 Sur 10 Sudeste 0 -- -- 83
2017-07-24 02:00:00 18.4 2 Sur 8 Sudoeste 0 -- -- 82
2017-07-24 01:00:00 19.3 4 Sudoeste 8 Sudoeste 0 -- -- 78
2017-07-24 00:00:00 20.5 3 Noroeste 14 Norte 0 -- -- 75
2017-07-23 23:00:00 21.2 7 Norte 17 Nordeste 0 -- -- 70
2017-07-23 22:00:00 21.6 8 Norte 25 Norte 0 -- -- 68
2017-07-23 21:00:00 21.8 6 Noroeste 39 Norte 0 -- -- 67
2017-07-23 20:00:00 22.6 21 Norte 39 Norte 0 -- -- 63
2017-07-23 19:00:00 24.4 11 Norte 36 Norte 0 -- -- 56
2017-07-23 18:00:00 25.2 13 Norte 35 Norte 0 -- -- 54
2017-07-23 17:00:00 24.4 17 Norte 42 Norte 0 -- -- 56
2017-07-23 16:00:00 25.5 15 Norte 30 Norte 0 -- -- 52
2017-07-23 15:00:00 25.3 15 Norte 30 Norte 0 -- -- 51
2017-07-23 14:00:00 24.6 7 Noroeste 18 Este 0 -- -- 49
2017-07-23 13:00:00 23.5 8 Norte 17 Noroeste 0 -- -- 53
2017-07-23 12:00:00 21.8 5 Noroeste 19 Oeste 0 -- -- 56
2017-07-23 11:00:00 20.1 4 Nordeste 10 Norte 0 -- -- 60
2017-07-23 10:00:00 19.1 0 Calma 6 Noroeste 0 -- -- 68
2017-07-23 09:00:00 16.8 3 Noroeste 4 Noroeste 0 -- -- 80
2017-07-23 08:00:00 16.3 0 Calma 6 Nordeste 0 -- -- 82
2017-07-23 07:00:00 16.2 4 Nordeste 6 Nordeste 0 -- -- 80
2017-07-23 06:00:00 16.3 2 Noroeste 4 Noroeste 0 -- -- 81
2017-07-23 05:00:00 16.5 0 Calma 6 Sur 0 -- -- 80
2017-07-23 04:00:00 16.7 3 Sudoeste 10 Noroeste 0 -- -- 79
2017-07-23 03:00:00 16.7 2 Norte 10 Norte 0 -- -- 78
2017-07-23 02:00:00 16.8 7 Norte 16 Norte 0 -- -- 78
2017-07-23 01:00:00 17 4 Norte 10 Norte 0 -- -- 77
2017-07-23 00:00:00 17.1 6 Noroeste 22 Oeste 0 -- -- 76
2017-07-22 23:00:00 17.5 8 Norte 14 Norte 0 -- -- 75
2017-07-22 22:00:00 17.4 7 Noroeste 27 Noroeste 0 -- -- 76
2017-07-22 21:00:00 17.9 10 Norte 23 Norte 0 -- -- 74
2017-07-22 20:00:00 18.1 12 Noroeste 28 Noroeste 0 -- -- 73
2017-07-22 19:00:00 18.9 13 Noroeste 33 Noroeste 0 -- -- 72
2017-07-22 18:00:00 19.1 16 Noroeste 35 Noroeste 0 -- -- 73
2017-07-22 17:00:00 20.1 19 Noroeste 48 Norte 0 -- -- 68
2017-07-22 16:00:00 20.6 23 Norte 44 Norte 0 -- -- 69
2017-07-22 15:00:00 20.6 27 Norte 52 Norte 0 -- -- 69
2017-07-22 14:00:00 21.4 21 Norte 38 Norte 0 -- -- 65
2017-07-22 13:00:00 22 19 Norte 33 Norte 0 -- -- 60
2017-07-22 12:00:00 21.1 12 Noroeste 23 Noroeste 0 -- -- 62
2017-07-22 11:00:00 20.1 3 Noroeste 6 Noroeste 0 -- -- 68
2017-07-22 10:00:00 18.4 2 Sur 5 Sudoeste 0 -- -- 74
2017-07-22 09:00:00 16 0 Calma 4 Noroeste 0 -- -- 84
2017-07-22 08:00:00 15.1 0 Calma 5 Noroeste 0 -- -- 90
2017-07-22 07:00:00 14.9 2 Noroeste 4 Noroeste 0 -- -- 90
2017-07-22 06:00:00 14.7 0 Calma 4 Noroeste 0 -- -- 90
2017-07-22 05:00:00 14.9 0 Calma 3 Norte 0 -- -- 89
2017-07-22 04:00:00 14.4 0 Calma 3 Norte 0 -- -- 91
2017-07-22 03:00:00 13.7 0 Calma 2 Oeste 0 -- -- 92
2017-07-22 02:00:00 14.3 0 Calma 3 Sudoeste 0 -- -- 89
2017-07-22 01:00:00 15.3 0 Calma 5 Sudoeste 0 -- -- 86
2017-07-22 00:00:00 16.6 2 Sur 8 Sur 0 -- -- 81